»·PEaware :: DIHNF S36-KORS

DIHNF :: S36-KORS

FLIGHT INFORMATION

Flight Status: Arrived
Operator: Unknown
More flights by this operator :: More flights under this callsign
Pilot: Klaus A. (15485)
Aircraft: BEECH AIRCRAFT BARON
(BE58)
More flights by this aircraft type
Origin: S36 Norman Grier Field
United States
Destination: KORS Orcas Island
United States
More flights between these airports :: More routes between these airports
Route: DCT
File this flight plan on PilotEdge
Remarks:
Altitude:
(Current/Filed)
2,500ft
Speed:
(Current/Filed)
170kts
Departed: 06-May-20 09:03 AM
Arrived: 06-May-20 09:41 AM
Distance/Time
Traveled:
88nm/0:38
Distance/Time
To Go:
Arrived

Flight Plot

Page will automatically refresh every two minutes.

Flight plan parsing failed; only flown route is shown


Map Options




Map Legend


Flown Route
Filed Route
Departure Airport
Arrival Airport
Navaid (VOR, NDB)
Fix

Horizontal Profiles

Position Reports

Time Latitude Longitude Heading Altitude Ground
Speed
06-May-20 08:40 47.340808 -122.103299 260 476ft 0kts
06-May-20 08:41 47.340808 -122.103299 260 476ft 0kts
06-May-20 08:42 47.340808 -122.103298 260 476ft 0kts
06-May-20 08:43 47.340808 -122.103299 259 476ft 0kts
06-May-20 08:44 47.340808 -122.103299 259 476ft 0kts
06-May-20 08:45 47.340808 -122.103299 259 476ft 0kts
06-May-20 08:46 47.340807 -122.103310 260 476ft 0kts
06-May-20 08:47 47.341219 -122.103908 278 476ft 0kts
06-May-20 08:48 47.341219 -122.103908 278 476ft 0kts
06-May-20 08:49 47.341219 -122.103908 278 476ft 0kts
06-May-20 08:50 47.341219 -122.103908 278 476ft 0kts
06-May-20 08:51 47.341219 -122.103908 278 476ft 0kts
06-May-20 08:52 47.341219 -122.103908 278 476ft 0kts
06-May-20 08:53 47.341219 -122.103908 278 476ft 0kts
06-May-20 08:54 47.340537 -122.104061 172 476ft 11kts
06-May-20 08:55 47.336138 -122.103049 169 476ft 18kts
06-May-20 08:56 47.333263 -122.102312 167 476ft 0kts
06-May-20 08:57 47.333263 -122.102312 166 476ft 0kts
06-May-20 08:58 47.333263 -122.102312 166 476ft 0kts
06-May-20 08:59 47.333263 -122.102312 166 476ft 0kts
06-May-20 09:00 47.333234 -122.102302 166 476ft 0kts
06-May-20 09:01 47.333129 -122.102628 352 476ft 0kts
06-May-20 09:02 47.342289 -122.104376 346 608ft 117kts
06-May-20 09:03 47.382265 -122.107408 356 1827ft 155kts
06-May-20 09:04 47.426602 -122.105495 353 2512ft 169kts
06-May-20 09:05 47.471092 -122.112532 349 2595ft 165kts
06-May-20 09:06 47.517116 -122.116342 354 2615ft 176kts
06-May-20 09:07 47.565822 -122.118497 357 2539ft 176kts
06-May-20 09:08 47.614699 -122.121194 352 2456ft 175kts
06-May-20 09:09 47.661999 -122.129282 336 2466ft 168kts
06-May-20 09:10 47.704513 -122.154490 334 2442ft 164kts
06-May-20 09:11 47.745529 -122.179598 335 2932ft 157kts
06-May-20 09:12 47.787076 -122.202171 335 3532ft 163kts
06-May-20 09:13 47.827760 -122.232110 334 3582ft 163kts
06-May-20 09:14 47.870017 -122.258916 337 3519ft 165kts
06-May-20 09:15 47.911427 -122.288036 331 3482ft 165kts
06-May-20 09:16 47.950349 -122.321599 332 4006ft 162kts
06-May-20 09:17 47.990239 -122.353126 331 4528ft 163kts
06-May-20 09:18 48.030974 -122.385143 331 4588ft 165kts
06-May-20 09:19 48.071473 -122.419099 331 4585ft 167kts
06-May-20 09:20 48.112092 -122.453135 331 4590ft 168kts
06-May-20 09:21 48.152980 -122.487541 331 4588ft 168kts
06-May-20 09:22 48.194055 -122.522176 331 4558ft 169kts
06-May-20 09:23 48.234707 -122.556494 328 4530ft 166kts
06-May-20 09:24 48.274885 -122.590592 326 4530ft 167kts
06-May-20 09:25 48.315151 -122.624713 326 4578ft 163kts
06-May-20 09:26 48.354717 -122.658362 326 4588ft 164kts
06-May-20 09:27 48.396397 -122.687692 331 4590ft 164kts
06-May-20 09:28 48.437681 -122.716887 328 4583ft 164kts
06-May-20 09:29 48.479054 -122.746305 330 4578ft 164kts
06-May-20 09:30 48.520656 -122.776016 329 4584ft 161kts
06-May-20 09:31 48.559900 -122.806818 332 3827ft 162kts
06-May-20 09:32 48.598130 -122.835650 338 3254ft 154kts
06-May-20 09:33 48.639575 -122.860762 335 2466ft 162kts
06-May-20 09:34 48.679260 -122.891525 331 1859ft 159kts
06-May-20 09:35 48.721001 -122.909610 2 1189ft 157kts
06-May-20 09:36 48.721146 -122.941227 165 814ft 142kts
06-May-20 09:37 48.694702 -122.910669 179 671ft 106kts
06-May-20 09:38 48.671866 -122.899717 47 415ft 99kts
06-May-20 09:39 48.695477 -122.910559 359 221ft 86kts
06-May-20 09:40 48.709324 -122.910607 0 28ft 7kts
06-May-20 09:41 48.709710 -122.909451 178 28ft 0kts
06-May-20 09:42 48.709710 -122.909451 178 28ft 0kts
06-May-20 09:43 48.709710 -122.909451 178 28ft 0kts
06-May-20 09:44 48.709710 -122.909451 178 28ft 0kts
06-May-20 09:45 48.709710 -122.909451 178 28ft 0kts
06-May-20 09:46 48.709710 -122.909451 178 28ft 0kts
06-May-20 09:47 48.709710 -122.909451 178 28ft 0kts
06-May-20 09:48 48.709710 -122.909451 178 28ft 0kts
06-May-20 09:49 48.709710 -122.909451 178 28ft 0kts

Navigation Log

Ident Type
Flight plan parsing failed, navigation log unavailable